CST,Max TemperatureF,Mean TemperatureF,Min TemperatureF,Max Dew PointF,MeanDew PointF,Min DewpointF,Max Humidity, Mean Humidity, Min Humidity, Max Sea Level PressureIn, Mean Sea Level PressureIn, Min Sea Level PressureIn, Max VisibilityMiles, Mean VisibilityMiles, Min VisibilityMiles, Max Wind SpeedMPH, Mean Wind SpeedMPH, Max Gust SpeedMPH,PrecipitationIn, CloudCover, Events, WindDirDegrees
2011-12-1,54,45,36,36,33,29,83,66,49,30.39,30.13,29.95,10,10,10,24,11,30,0.00,0,,61
2011-12-2,38,37,36,34,30,27,91,75,68,30.46,30.33,30.17,10,8,2,25,14,32,0.00,8,Rain,39
2011-12-3,54,46,37,48,40,33,95,85,61,30.17,29.99,29.87,10,7,0,30,8,34,0.00,5,Fog-Rain-Thunderstorm,301
2011-12-4,43,39,35,32,30,29,84,74,62,30.24,30.20,30.14,10,10,10,16,8,21,0.00,2,,14
2011-12-5,37,33,28,29,24,18,78,69,59,30.40,30.32,30.20,10,10,10,26,17,32,0.00,4,Snow,11
2011-12-6,30,27,24,21,19,17,84,73,64,30.43,30.37,30.30,10,10,10,18,11,23,0.00,5,,359
2011-12-7,47,34,21,27,22,18,89,70,37,30.34,30.28,30.20,10,10,10,8,3,,0.00,0,,215
2011-12-8,54,42,30,35,30,26,85,69,43,30.21,30.12,30.02,10,10,10,16,8,22,0.00,0,,119
2011-12-9,41,36,32,32,30,28,90,80,66,30.51,30.33,30.12,10,7,5,21,13,23,0.00,3,,17
2011-12-10,41,36,32,33,31,29,89,82,71,30.59,30.54,30.45,7,5,3,8,4,,0.00,8,,17
2011-12-11,43,41,39,39,37,34,92,86,79,30.45,30.33,30.22,7,4,2,17,8,18,0.00,8,Rain,167
2011-12-12,45,43,41,42,39,36,93,85,76,30.27,30.21,30.17,10,7,1,17,11,18,0.00,8,,149
2011-12-13,50,46,42,48,42,40,94,90,87,30.25,30.22,30.13,7,4,1,15,10,,0.00,8,Rain,122
2011-12-14,64,54,44,52,44,38,80,69,57,30.06,29.95,29.87,10,10,10,14,9,,0.00,0,,259
2011-12-15,52,46,41,38,34,31,84,62,49,30.32,30.21,30.04,10,10,10,17,10,24,0.00,0,,28
2011-12-16,50,41,32,32,28,24,85,61,37,30.48,30.43,30.36,10,10,10,12,6,,0.00,0,,28
2011-12-17,56,44,31,39,32,27,92,74,48,30.51,30.46,30.40,10,10,10,7,3,,0.00,0,,299
2011-12-18,59,50,41,44,39,35,80,65,47,30.39,30.24,30.06,10,10,10,17,7,,0.00,6,,177
2011-12-19,57,52,47,55,48,44,94,86,67,29.99,29.83,29.69,10,8,1,20,13,23,0.00,7,Rain-Thunderstorm,143
2011-12-20,43,38,32,41,34,29,94,83,75,30.00,29.88,29.72,10,10,3,31,12,36,0.00,5,Rain,320
2011-12-21,57,42,28,40,33,27,92,77,51,29.99,29.89,29.79,10,10,10,16,6,,0.00,0,,169
2011-12-22,39,36,32,35,32,28,92,83,77,30.31,30.06,29.87,10,9,3,28,13,34,0.00,5,,5
2011-12-23,41,34,28,24,22,19,78,63,42,30.53,30.45,30.41,10,10,10,18,11,25,0.00,2,,13
2011-12-24,46,36,25,30,25,22,90,68,38,30.51,30.43,30.38,10,10,10,10,3,,0.00,1,,331
2011-12-25,41,37,33,36,33,30,92,83,76,30.49,30.44,30.40,10,8,1,9,6,,0.00,8,Rain-Snow,340
2011-12-26,44,40,35,36,34,32,87,79,64,30.34,30.16,30.03,10,10,10,16,4,,0.00,6,Rain,261
2011-12-27,54,43,32,33,29,26,89,64,36,30.29,30.20,30.11,10,10,10,17,9,,0.00,0,,332
2011-12-28,55,44,32,36,31,28,86,68,43,30.11,30.05,30.00,10,10,10,15,7,18,0.00,0,,68
2011-12-29,66,48,30,37,34,28,90,64,30,30.04,29.87,29.75,10,10,10,16,5,,0.00,0,,176
2011-12-30,63,50,37,36,30,22,78,48,21,30.15,30.04,29.83,10,10,10,23,10,30,0.00,0,,283
2011-12-31,80,57,34,36,31,15,82,47,17,30.14,29.89,29.72,10,9,0,43,13,54,0.00,1,Rain,178